sensor_id;sensor_type;location;lat;lon;timestamp;P1;durP1;ratioP1;P2;durP2;ratioP2
79693;SDS011;69165;52.714;13.200;2023-04-16T05:01:39;101.73;;;36.37;;
79693;SDS011;69165;52.714;13.200;2023-04-16T05:03:41;105.60;;;37.63;;
79693;SDS011;69165;52.714;13.200;2023-04-16T05:05:43;118.40;;;40.27;;
79693;SDS011;69165;52.714;13.200;2023-04-16T05:07:44;115.10;;;37.80;;
79693;SDS011;69165;52.714;13.200;2023-04-16T05:09:46;125.87;;;41.17;;
79693;SDS011;69165;52.714;13.200;2023-04-16T05:11:47;113.90;;;37.73;;
79693;SDS011;69165;52.714;13.200;2023-04-16T05:13:50;101.30;;;37.50;;
79693;SDS011;69165;52.714;13.200;2023-04-16T05:15:51;97.80;;;35.90;;
79693;SDS011;69165;52.714;13.200;2023-04-16T05:17:53;114.83;;;42.07;;
79693;SDS011;69165;52.714;13.200;2023-04-16T05:19:55;112.37;;;39.60;;
79693;SDS011;69165;52.714;13.200;2023-04-16T05:21:58;109.47;;;38.90;;
79693;SDS011;69165;52.714;13.200;2023-04-16T05:23:59;109.43;;;38.20;;
79693;SDS011;69165;52.714;13.200;2023-04-16T05:26:02;120.80;;;38.00;;
79693;SDS011;69165;52.714;13.200;2023-04-16T05:28:03;108.47;;;38.13;;
79693;SDS011;69165;52.714;13.200;2023-04-16T05:30:05;113.57;;;41.50;;
79693;SDS011;69165;52.714;13.200;2023-04-16T05:32:07;108.93;;;39.67;;
79693;SDS011;69165;52.714;13.200;2023-04-16T05:34:09;110.37;;;38.80;;
79693;SDS011;69165;52.714;13.200;2023-04-16T05:36:11;102.50;;;38.70;;
79693;SDS011;69165;52.714;13.200;2023-04-16T05:38:12;112.13;;;38.10;;
79693;SDS011;69165;52.714;13.200;2023-04-16T05:40:15;114.17;;;36.20;;
79693;SDS011;69165;52.714;13.200;2023-04-16T05:42:16;103.43;;;37.00;;
79693;SDS011;69165;52.714;13.200;2023-04-16T05:44:18;105.83;;;39.30;;
79693;SDS011;69165;52.714;13.200;2023-04-16T05:46:19;128.20;;;38.97;;
79693;SDS011;69165;52.714;13.200;2023-04-16T05:48:21;95.53;;;35.50;;
79693;SDS011;69165;52.714;13.200;2023-04-16T05:50:23;92.73;;;34.10;;
79693;SDS011;69165;52.714;13.200;2023-04-16T05:52:25;118.60;;;39.57;;
79693;SDS011;69165;52.714;13.200;2023-04-16T05:54:27;121.57;;;39.60;;
79693;SDS011;69165;52.714;13.200;2023-04-16T05:56:29;119.80;;;41.00;;
79693;SDS011;69165;52.714;13.200;2023-04-16T05:58:30;122.00;;;38.77;;
79693;SDS011;69165;52.714;13.200;2023-04-16T06:00:32;120.90;;;37.67;;
79693;SDS011;69165;52.714;13.200;2023-04-16T06:02:33;137.07;;;39.97;;
79693;SDS011;69165;52.714;13.200;2023-04-16T06:04:35;107.77;;;39.43;;
79693;SDS011;69165;52.714;13.200;2023-04-16T06:06:37;110.43;;;41.10;;
79693;SDS011;69165;52.714;13.200;2023-04-16T06:08:38;118.57;;;41.33;;
79693;SDS011;69165;52.714;13.200;2023-04-16T06:10:40;132.40;;;39.47;;
79693;SDS011;69165;52.714;13.200;2023-04-16T06:12:42;112.67;;;37.77;;
79693;SDS011;69165;52.714;13.200;2023-04-16T06:14:43;104.63;;;38.33;;
79693;SDS011;69165;52.714;13.200;2023-04-16T06:16:45;118.03;;;38.20;;
79693;SDS011;69165;52.714;13.200;2023-04-16T06:18:46;113.73;;;37.27;;
79693;SDS011;69165;52.714;13.200;2023-04-16T06:20:48;115.47;;;37.30;;
79693;SDS011;69165;52.714;13.200;2023-04-16T06:22:50;118.40;;;39.70;;
79693;SDS011;69165;52.714;13.200;2023-04-16T06:24:51;115.40;;;39.13;;
79693;SDS011;69165;52.714;13.200;2023-04-16T06:26:53;122.80;;;38.20;;
79693;SDS011;69165;52.714;13.200;2023-04-16T06:28:54;123.20;;;40.33;;
79693;SDS011;69165;52.714;13.200;2023-04-16T06:30:57;112.37;;;40.00;;
79693;SDS011;69165;52.714;13.200;2023-04-16T06:32:59;115.37;;;38.77;;
79693;SDS011;69165;52.714;13.200;2023-04-16T06:35:01;126.20;;;40.80;;
79693;SDS011;69165;52.714;13.200;2023-04-16T06:37:03;127.60;;;37.63;;
79693;SDS011;69165;52.714;13.200;2023-04-16T06:39:05;99.93;;;37.17;;
79693;SDS011;69165;52.714;13.200;2023-04-16T06:41:07;117.50;;;37.00;;
79693;SDS011;69165;52.714;13.200;2023-04-16T06:43:10;107.30;;;39.90;;
79693;SDS011;69165;52.714;13.200;2023-04-16T06:45:12;120.73;;;40.87;;
79693;SDS011;69165;52.714;13.200;2023-04-16T06:47:14;100.03;;;39.20;;
79693;SDS011;69165;52.714;13.200;2023-04-16T06:49:16;119.20;;;38.70;;
79693;SDS011;69165;52.714;13.200;2023-04-16T06:51:17;109.13;;;36.80;;
79693;SDS011;69165;52.714;13.200;2023-04-16T06:53:19;111.63;;;39.07;;
79693;SDS011;69165;52.714;13.200;2023-04-16T06:55:21;101.73;;;35.70;;
79693;SDS011;69165;52.714;13.200;2023-04-16T06:57:22;101.97;;;39.00;;
79693;SDS011;69165;52.714;13.200;2023-04-16T06:59:24;106.17;;;38.67;;
79693;SDS011;69165;52.714;13.200;2023-04-16T07:01:25;117.53;;;40.47;;
79693;SDS011;69165;52.714;13.200;2023-04-16T07:03:27;109.37;;;37.03;;
79693;SDS011;69165;52.714;13.200;2023-04-16T07:05:29;110.67;;;36.97;;
79693;SDS011;69165;52.714;13.200;2023-04-16T07:07:32;102.83;;;35.73;;
79693;SDS011;69165;52.714;13.200;2023-04-16T07:09:34;109.93;;;37.40;;
79693;SDS011;69165;52.714;13.200;2023-04-16T07:11:36;91.83;;;36.07;;
79693;SDS011;69165;52.714;13.200;2023-04-16T07:13:39;101.60;;;35.07;;
79693;SDS011;69165;52.714;13.200;2023-04-16T07:15:41;92.57;;;36.70;;
79693;SDS011;69165;52.714;13.200;2023-04-16T07:17:43;108.03;;;39.70;;
79693;SDS011;69165;52.714;13.200;2023-04-16T07:19:45;103.93;;;35.93;;
79693;SDS011;69165;52.714;13.200;2023-04-16T07:21:47;95.30;;;36.53;;
79693;SDS011;69165;52.714;13.200;2023-04-16T07:23:49;91.50;;;36.63;;
79693;SDS011;69165;52.714;13.200;2023-04-16T07:25:51;99.70;;;35.80;;
79693;SDS011;69165;52.714;13.200;2023-04-16T07:27:52;95.80;;;36.77;;
79693;SDS011;69165;52.714;13.200;2023-04-16T07:29:54;95.43;;;35.63;;
79693;SDS011;69165;52.714;13.200;2023-04-16T07:31:56;95.90;;;37.03;;
79693;SDS011;69165;52.714;13.200;2023-04-16T07:33:57;107.90;;;36.07;;
79693;SDS011;69165;52.714;13.200;2023-04-16T07:35:59;96.27;;;36.77;;
79693;SDS011;69165;52.714;13.200;2023-04-16T07:38:00;105.77;;;37.43;;
79693;SDS011;69165;52.714;13.200;2023-04-16T07:40:02;101.17;;;36.73;;
79693;SDS011;69165;52.714;13.200;2023-04-16T07:42:04;100.67;;;35.13;;
79693;SDS011;69165;52.714;13.200;2023-04-16T07:44:05;101.27;;;36.17;;
79693;SDS011;69165;52.714;13.200;2023-04-16T07:46:07;90.43;;;33.67;;
79693;SDS011;69165;52.714;13.200;2023-04-16T07:48:08;108.47;;;38.53;;
79693;SDS011;69165;52.714;13.200;2023-04-16T07:50:10;102.43;;;35.90;;
79693;SDS011;69165;52.714;13.200;2023-04-16T07:52:12;105.23;;;35.47;;
79693;SDS011;69165;52.714;13.200;2023-04-16T07:54:14;107.67;;;36.30;;
79693;SDS011;69165;52.714;13.200;2023-04-16T07:56:16;93.03;;;35.13;;
79693;SDS011;69165;52.714;13.200;2023-04-16T07:58:17;103.83;;;36.17;;
79693;SDS011;69165;52.714;13.200;2023-04-16T08:00:20;115.93;;;37.10;;
79693;SDS011;69165;52.714;13.200;2023-04-16T08:02:22;103.90;;;32.73;;
79693;SDS011;69165;52.714;13.200;2023-04-16T08:04:24;90.57;;;34.13;;
79693;SDS011;69165;52.714;13.200;2023-04-16T08:06:26;87.27;;;33.17;;
79693;SDS011;69165;52.714;13.200;2023-04-16T08:08:28;84.87;;;32.57;;
79693;SDS011;69165;52.714;13.200;2023-04-16T08:10:29;87.17;;;33.80;;
79693;SDS011;69165;52.714;13.200;2023-04-16T08:12:31;98.07;;;34.80;;
79693;SDS011;69165;52.714;13.200;2023-04-16T08:14:32;94.30;;;34.63;;
79693;SDS011;69165;52.714;13.200;2023-04-16T08:16:34;87.20;;;33.20;;
79693;SDS011;69165;52.714;13.200;2023-04-16T08:18:36;79.07;;;31.63;;
79693;SDS011;69165;52.714;13.200;2023-04-16T08:20:37;75.83;;;30.40;;
79693;SDS011;69165;52.714;13.200;2023-04-16T08:22:39;72.03;;;30.63;;
79693;SDS011;69165;52.714;13.200;2023-04-16T08:24:41;85.50;;;33.10;;
79693;SDS011;69165;52.714;13.200;2023-04-16T08:26:43;91.80;;;33.20;;
79693;SDS011;69165;52.714;13.200;2023-04-16T08:28:45;83.90;;;31.37;;
79693;SDS011;69165;52.714;13.200;2023-04-16T08:30:47;79.83;;;29.60;;
79693;SDS011;69165;52.714;13.200;2023-04-16T08:32:48;88.93;;;34.20;;
79693;SDS011;69165;52.714;13.200;2023-04-16T08:34:50;93.97;;;31.50;;
79693;SDS011;69165;52.714;13.200;2023-04-16T08:36:52;74.63;;;28.43;;
79693;SDS011;69165;52.714;13.200;2023-04-16T08:38:53;67.33;;;29.23;;
79693;SDS011;69165;52.714;13.200;2023-04-16T08:40:56;77.27;;;29.27;;
79693;SDS011;69165;52.714;13.200;2023-04-16T08:42:58;70.83;;;27.77;;
79693;SDS011;69165;52.714;13.200;2023-04-16T08:45:05;67.57;;;26.67;;
79693;SDS011;69165;52.714;13.200;2023-04-16T08:47:04;73.40;;;28.80;;
79693;SDS011;69165;52.714;13.200;2023-04-16T08:49:06;74.77;;;28.40;;
79693;SDS011;69165;52.714;13.200;2023-04-16T08:51:08;63.90;;;27.07;;
79693;SDS011;69165;52.714;13.200;2023-04-16T08:53:09;58.83;;;26.70;;
79693;SDS011;69165;52.714;13.200;2023-04-16T08:55:11;66.40;;;27.33;;
79693;SDS011;69165;52.714;13.200;2023-04-16T08:57:13;64.83;;;26.63;;
79693;SDS011;69165;52.714;13.200;2023-04-16T08:59:15;71.27;;;27.90;;
79693;SDS011;69165;52.714;13.200;2023-04-16T09:01:17;67.00;;;27.90;;
79693;SDS011;69165;52.714;13.200;2023-04-16T09:03:18;64.90;;;27.53;;
79693;SDS011;69165;52.714;13.200;2023-04-16T09:05:20;70.17;;;27.83;;
79693;SDS011;69165;52.714;13.200;2023-04-16T09:07:22;66.67;;;26.83;;
79693;SDS011;69165;52.714;13.200;2023-04-16T09:09:24;71.40;;;28.00;;
79693;SDS011;69165;52.714;13.200;2023-04-16T09:11:27;57.13;;;25.27;;
79693;SDS011;69165;52.714;13.200;2023-04-16T09:13:30;75.63;;;27.77;;
79693;SDS011;69165;52.714;13.200;2023-04-16T09:15:31;72.70;;;27.83;;
79693;SDS011;69165;52.714;13.200;2023-04-16T09:17:33;59.13;;;26.67;;
79693;SDS011;69165;52.714;13.200;2023-04-16T09:19:34;64.87;;;26.73;;
79693;SDS011;69165;52.714;13.200;2023-04-16T09:21:36;62.10;;;25.90;;
79693;SDS011;69165;52.714;13.200;2023-04-16T09:23:38;68.53;;;26.50;;
79693;SDS011;69165;52.714;13.200;2023-04-16T09:25:41;64.23;;;25.27;;
79693;SDS011;69165;52.714;13.200;2023-04-16T09:27:42;59.30;;;25.40;;
79693;SDS011;69165;52.714;13.200;2023-04-16T09:29:44;65.20;;;27.80;;
79693;SDS011;69165;52.714;13.200;2023-04-16T09:31:59;64.47;;;25.37;;
79693;SDS011;69165;52.714;13.200;2023-04-16T09:33:59;64.03;;;26.70;;
79693;SDS011;69165;52.714;13.200;2023-04-16T09:36:00;59.77;;;25.70;;
79693;SDS011;69165;52.714;13.200;2023-04-16T09:38:03;60.73;;;26.30;;
79693;SDS011;69165;52.714;13.200;2023-04-16T09:40:05;60.90;;;24.80;;
79693;SDS011;69165;52.714;13.200;2023-04-16T09:42:07;57.00;;;26.67;;
79693;SDS011;69165;52.714;13.200;2023-04-16T09:44:08;54.93;;;23.60;;
79693;SDS011;69165;52.714;13.200;2023-04-16T09:46:11;53.10;;;24.40;;
79693;SDS011;69165;52.714;13.200;2023-04-16T09:48:12;59.23;;;26.23;;
79693;SDS011;69165;52.714;13.200;2023-04-16T09:50:15;60.83;;;25.23;;
79693;SDS011;69165;52.714;13.200;2023-04-16T09:52:16;62.27;;;27.13;;
79693;SDS011;69165;52.714;13.200;2023-04-16T09:54:18;59.87;;;25.40;;
79693;SDS011;69165;52.714;13.200;2023-04-16T09:56:22;71.87;;;26.90;;
79693;SDS011;69165;52.714;13.200;2023-04-16T09:58:21;57.93;;;25.80;;
79693;SDS011;69165;52.714;13.200;2023-04-16T10:00:22;54.97;;;25.60;;
79693;SDS011;69165;52.714;13.200;2023-04-16T10:02:26;59.67;;;26.30;;
79693;SDS011;69165;52.714;13.200;2023-04-16T10:04:27;56.20;;;25.17;;
79693;SDS011;69165;52.714;13.200;2023-04-16T10:06:29;63.30;;;25.27;;
79693;SDS011;69165;52.714;13.200;2023-04-16T10:08:30;52.27;;;23.43;;
79693;SDS011;69165;52.714;13.200;2023-04-16T10:10:32;50.63;;;26.43;;
79693;SDS011;69165;52.714;13.200;2023-04-16T10:12:33;59.37;;;22.80;;
79693;SDS011;69165;52.714;13.200;2023-04-16T10:14:35;58.17;;;24.43;;
79693;SDS011;69165;52.714;13.200;2023-04-16T10:16:37;42.40;;;21.33;;
79693;SDS011;69165;52.714;13.200;2023-04-16T10:18:39;45.93;;;22.13;;
79693;SDS011;69165;52.714;13.200;2023-04-16T10:20:41;49.40;;;21.83;;
79693;SDS011;69165;52.714;13.200;2023-04-16T10:22:43;46.30;;;20.77;;
79693;SDS011;69165;52.714;13.200;2023-04-16T10:24:45;44.50;;;22.30;;
79693;SDS011;69165;52.714;13.200;2023-04-16T10:26:46;35.83;;;20.13;;
79693;SDS011;69165;52.714;13.200;2023-04-16T10:28:48;39.93;;;19.10;;
79693;SDS011;69165;52.714;13.200;2023-04-16T10:30:50;40.80;;;18.97;;
79693;SDS011;69165;52.714;13.200;2023-04-16T10:32:52;43.43;;;20.80;;
79693;SDS011;69165;52.714;13.200;2023-04-16T10:34:54;44.23;;;19.20;;
79693;SDS011;69165;52.714;13.200;2023-04-16T10:36:56;33.33;;;18.23;;
79693;SDS011;69165;52.714;13.200;2023-04-16T10:38:58;34.13;;;18.97;;
79693;SDS011;69165;52.714;13.200;2023-04-16T10:41:02;36.80;;;18.07;;
79693;SDS011;69165;52.714;13.200;2023-04-16T10:43:03;33.70;;;16.93;;
79693;SDS011;69165;52.714;13.200;2023-04-16T10:45:05;31.53;;;16.47;;
79693;SDS011;69165;52.714;13.200;2023-04-16T10:47:09;28.70;;;16.20;;
79693;SDS011;69165;52.714;13.200;2023-04-16T10:49:12;30.73;;;16.10;;
79693;SDS011;69165;52.714;13.200;2023-04-16T10:53:32;36.23;;;17.90;;
79693;SDS011;69165;52.714;13.200;2023-04-16T10:55:37;33.20;;;16.20;;
79693;SDS011;69165;52.714;13.200;2023-04-16T10:57:36;31.27;;;16.93;;
79693;SDS011;69165;52.714;13.200;2023-04-16T10:59:37;29.43;;;15.47;;
79693;SDS011;69165;52.714;13.200;2023-04-16T11:01:41;29.80;;;15.90;;
79693;SDS011;69165;52.714;13.200;2023-04-16T11:03:43;36.47;;;16.73;;
79693;SDS011;69165;52.714;13.200;2023-04-16T11:05:44;56.80;;;15.17;;
79693;SDS011;69165;52.714;13.200;2023-04-16T11:07:46;25.27;;;13.47;;
79693;SDS011;69165;52.714;13.200;2023-04-16T11:09:52;28.33;;;14.37;;
79693;SDS011;69165;52.714;13.200;2023-04-16T11:11:53;27.00;;;14.80;;
79693;SDS011;69165;52.714;13.200;2023-04-16T11:13:55;26.17;;;14.37;;
79693;SDS011;69165;52.714;13.200;2023-04-16T11:15:57;25.70;;;14.93;;
79693;SDS011;69165;52.714;13.200;2023-04-16T11:17:59;25.10;;;15.33;;
79693;SDS011;69165;52.714;13.200;2023-04-16T11:20:02;31.43;;;16.40;;
79693;SDS011;69165;52.714;13.200;2023-04-16T11:22:04;32.13;;;15.60;;
79693;SDS011;69165;52.714;13.200;2023-04-16T11:24:06;22.30;;;12.63;;
79693;SDS011;69165;52.714;13.200;2023-04-16T11:26:18;24.50;;;13.63;;
79693;SDS011;69165;52.714;13.200;2023-04-16T11:28:09;27.47;;;15.27;;
79693;SDS011;69165;52.714;13.200;2023-04-16T11:30:11;27.10;;;14.33;;
79693;SDS011;69165;52.714;13.200;2023-04-16T11:32:19;44.00;;;16.80;;
79693;SDS011;69165;52.714;13.200;2023-04-16T11:34:22;32.00;;;16.23;;
79693;SDS011;69165;52.714;13.200;2023-04-16T11:36:23;32.97;;;16.23;;
79693;SDS011;69165;52.714;13.200;2023-04-16T11:38:32;31.00;;;16.17;;
79693;SDS011;69165;52.714;13.200;2023-04-16T11:40:33;35.47;;;18.50;;
79693;SDS011;69165;52.714;13.200;2023-04-16T11:42:35;35.53;;;18.87;;
79693;SDS011;69165;52.714;13.200;2023-04-16T11:44:37;44.43;;;17.23;;
79693;SDS011;69165;52.714;13.200;2023-04-16T11:46:38;33.07;;;17.63;;
79693;SDS011;69165;52.714;13.200;2023-04-16T11:48:45;39.17;;;19.43;;
79693;SDS011;69165;52.714;13.200;2023-04-16T11:50:46;37.93;;;17.17;;
79693;SDS011;69165;52.714;13.200;2023-04-16T11:52:48;32.73;;;17.17;;
79693;SDS011;69165;52.714;13.200;2023-04-16T11:54:49;35.77;;;17.40;;
79693;SDS011;69165;52.714;13.200;2023-04-16T11:56:51;49.50;;;18.53;;
79693;SDS011;69165;52.714;13.200;2023-04-16T11:59:26;36.30;;;18.03;;
79693;SDS011;69165;52.714;13.200;2023-04-16T12:01:11;35.20;;;16.33;;
79693;SDS011;69165;52.714;13.200;2023-04-16T12:03:13;34.87;;;18.30;;
79693;SDS011;69165;52.714;13.200;2023-04-16T12:07:26;33.20;;;16.60;;
79693;SDS011;69165;52.714;13.200;2023-04-16T12:09:28;32.07;;;16.70;;
79693;SDS011;69165;52.714;13.200;2023-04-16T12:13:37;29.33;;;15.53;;
79693;SDS011;69165;52.714;13.200;2023-04-16T12:15:45;32.43;;;16.80;;
79693;SDS011;69165;52.714;13.200;2023-04-16T12:17:47;34.73;;;18.10;;
79693;SDS011;69165;52.714;13.200;2023-04-16T12:19:55;37.27;;;17.97;;
79693;SDS011;69165;52.714;13.200;2023-04-16T12:21:59;24.67;;;14.10;;
79693;SDS011;69165;52.714;13.200;2023-04-16T12:23:58;25.97;;;13.70;;
79693;SDS011;69165;52.714;13.200;2023-04-16T12:26:06;31.87;;;15.10;;
79693;SDS011;69165;52.714;13.200;2023-04-16T12:28:08;27.10;;;15.37;;
79693;SDS011;69165;52.714;13.200;2023-04-16T12:30:10;23.87;;;14.00;;
79693;SDS011;69165;52.714;13.200;2023-04-16T12:32:26;23.70;;;13.90;;
79693;SDS011;69165;52.714;13.200;2023-04-16T12:34:29;25.57;;;13.87;;
79693;SDS011;69165;52.714;13.200;2023-04-16T12:36:31;26.00;;;15.90;;
79693;SDS011;69165;52.714;13.200;2023-04-16T12:38:33;32.67;;;13.90;;
79693;SDS011;69165;52.714;13.200;2023-04-16T12:40:35;27.57;;;14.83;;
79693;SDS011;69165;52.714;13.200;2023-04-16T12:42:37;22.63;;;13.97;;
79693;SDS011;69165;52.714;13.200;2023-04-16T12:44:38;24.13;;;14.60;;
79693;SDS011;69165;52.714;13.200;2023-04-16T12:46:41;28.73;;;13.93;;
79693;SDS011;69165;52.714;13.200;2023-04-16T12:48:42;32.97;;;16.30;;
79693;SDS011;69165;52.714;13.200;2023-04-16T12:50:45;26.13;;;16.03;;
79693;SDS011;69165;52.714;13.200;2023-04-16T12:52:46;26.53;;;14.47;;
79693;SDS011;69165;52.714;13.200;2023-04-16T12:54:48;23.33;;;13.27;;
79693;SDS011;69165;52.714;13.200;2023-04-16T12:56:49;21.47;;;12.43;;
79693;SDS011;69165;52.714;13.200;2023-04-16T12:58:51;24.27;;;11.93;;
79693;SDS011;69165;52.714;13.200;2023-04-16T13:00:53;23.67;;;11.90;;
79693;SDS011;69165;52.714;13.200;2023-04-16T13:02:54;24.47;;;11.17;;
79693;SDS011;69165;52.714;13.200;2023-04-16T13:04:56;18.40;;;10.07;;
79693;SDS011;69165;52.714;13.200;2023-04-16T13:06:58;22.20;;;11.47;;
79693;SDS011;69165;52.714;13.200;2023-04-16T13:08:59;19.23;;;12.10;;
79693;SDS011;69165;52.714;13.200;2023-04-16T13:11:01;17.40;;;11.70;;
79693;SDS011;69165;52.714;13.200;2023-04-16T13:13:04;25.63;;;11.50;;
79693;SDS011;69165;52.714;13.200;2023-04-16T13:15:06;23.17;;;10.93;;
79693;SDS011;69165;52.714;13.200;2023-04-16T13:17:08;17.00;;;10.90;;
79693;SDS011;69165;52.714;13.200;2023-04-16T13:19:09;20.20;;;11.47;;
79693;SDS011;69165;52.714;13.200;2023-04-16T13:21:11;15.23;;;9.80;;
79693;SDS011;69165;52.714;13.200;2023-04-16T13:23:13;18.20;;;11.57;;
79693;SDS011;69165;52.714;13.200;2023-04-16T13:25:14;22.37;;;10.83;;
79693;SDS011;69165;52.714;13.200;2023-04-16T13:27:16;19.83;;;10.50;;
79693;SDS011;69165;52.714;13.200;2023-04-16T13:29:18;17.23;;;10.50;;
79693;SDS011;69165;52.714;13.200;2023-04-16T13:31:20;17.90;;;10.27;;
79693;SDS011;69165;52.714;13.200;2023-04-16T13:33:22;18.57;;;10.50;;
79693;SDS011;69165;52.714;13.200;2023-04-16T13:35:23;19.67;;;11.50;;
79693;SDS011;69165;52.714;13.200;2023-04-16T13:37:26;25.83;;;12.83;;
79693;SDS011;69165;52.714;13.200;2023-04-16T13:39:28;24.97;;;14.47;;
79693;SDS011;69165;52.714;13.200;2023-04-16T13:41:29;23.53;;;12.43;;
79693;SDS011;69165;52.714;13.200;2023-04-16T13:43:31;22.23;;;11.37;;
79693;SDS011;69165;52.714;13.200;2023-04-16T13:45:33;16.30;;;10.47;;
79693;SDS011;69165;52.714;13.200;2023-04-16T13:47:34;18.37;;;10.50;;
79693;SDS011;69165;52.714;13.200;2023-04-16T13:49:37;21.50;;;11.63;;
79693;SDS011;69165;52.714;13.200;2023-04-16T13:51:41;20.47;;;10.83;;
79693;SDS011;69165;52.714;13.200;2023-04-16T13:53:41;19.00;;;11.77;;
79693;SDS011;69165;52.714;13.200;2023-04-16T13:55:42;22.07;;;12.43;;
79693;SDS011;69165;52.714;13.200;2023-04-16T13:57:45;45.00;;;11.80;;
79693;SDS011;69165;52.714;13.200;2023-04-16T13:59:46;18.77;;;10.90;;
79693;SDS011;69165;52.714;13.200;2023-04-16T14:01:48;24.87;;;12.63;;
79693;SDS011;69165;52.714;13.200;2023-04-16T14:03:50;17.33;;;12.10;;
79693;SDS011;69165;52.714;13.200;2023-04-16T14:05:52;25.03;;;12.80;;
79693;SDS011;69165;52.714;13.200;2023-04-16T14:07:54;18.93;;;11.10;;
79693;SDS011;69165;52.714;13.200;2023-04-16T14:09:56;25.17;;;12.23;;
79693;SDS011;69165;52.714;13.200;2023-04-16T14:11:58;28.83;;;12.37;;
79693;SDS011;69165;52.714;13.200;2023-04-16T14:14:01;43.27;;;11.07;;
79693;SDS011;69165;52.714;13.200;2023-04-16T14:16:02;19.67;;;11.33;;
79693;SDS011;69165;52.714;13.200;2023-04-16T14:18:04;31.30;;;15.30;;
79693;SDS011;69165;52.714;13.200;2023-04-16T14:20:06;21.30;;;11.10;;
79693;SDS011;69165;52.714;13.200;2023-04-16T14:22:08;20.50;;;10.37;;
79693;SDS011;69165;52.714;13.200;2023-04-16T14:24:09;23.53;;;11.67;;
79693;SDS011;69165;52.714;13.200;2023-04-16T14:26:11;23.00;;;10.10;;
79693;SDS011;69165;52.714;13.200;2023-04-16T14:28:13;18.30;;;10.13;;
79693;SDS011;69165;52.714;13.200;2023-04-16T14:30:15;24.53;;;11.57;;
79693;SDS011;69165;52.714;13.200;2023-04-16T14:32:17;19.03;;;9.07;;
79693;SDS011;69165;52.714;13.200;2023-04-16T14:34:20;20.30;;;10.03;;
79693;SDS011;69165;52.714;13.200;2023-04-16T14:36:21;19.10;;;10.20;;
79693;SDS011;69165;52.714;13.200;2023-04-16T14:38:23;19.40;;;9.60;;
79693;SDS011;69165;52.714;13.200;2023-04-16T14:40:24;16.70;;;9.90;;
79693;SDS011;69165;52.714;13.200;2023-04-16T14:42:26;17.90;;;9.47;;
79693;SDS011;69165;52.714;13.200;2023-04-16T14:44:28;16.60;;;9.07;;
79693;SDS011;69165;52.714;13.200;2023-04-16T14:46:30;17.43;;;10.10;;
79693;SDS011;69165;52.714;13.200;2023-04-16T14:48:32;19.53;;;9.10;;
79693;SDS011;69165;52.714;13.200;2023-04-16T14:50:33;13.33;;;9.10;;
79693;SDS011;69165;52.714;13.200;2023-04-16T14:52:37;12.87;;;8.30;;
79693;SDS011;69165;52.714;13.200;2023-04-16T14:54:39;13.03;;;8.90;;
79693;SDS011;69165;52.714;13.200;2023-04-16T14:56:42;13.60;;;8.13;;
79693;SDS011;69165;52.714;13.200;2023-04-16T14:58:43;14.13;;;9.20;;
79693;SDS011;69165;52.714;13.200;2023-04-16T15:00:45;15.83;;;9.70;;
79693;SDS011;69165;52.714;13.200;2023-04-16T15:02:47;14.00;;;8.50;;
79693;SDS011;69165;52.714;13.200;2023-04-16T15:04:49;16.47;;;9.23;;
79693;SDS011;69165;52.714;13.200;2023-04-16T15:06:51;17.20;;;9.07;;
79693;SDS011;69165;52.714;13.200;2023-04-16T15:08:52;16.20;;;9.00;;
79693;SDS011;69165;52.714;13.200;2023-04-16T15:10:54;15.93;;;9.80;;
79693;SDS011;69165;52.714;13.200;2023-04-16T15:12:55;17.00;;;9.30;;
79693;SDS011;69165;52.714;13.200;2023-04-16T15:14:58;15.40;;;9.97;;
79693;SDS011;69165;52.714;13.200;2023-04-16T15:16:59;10.10;;;7.67;;
79693;SDS011;69165;52.714;13.200;2023-04-16T15:19:02;14.40;;;9.03;;
79693;SDS011;69165;52.714;13.200;2023-04-16T15:21:03;14.80;;;8.93;;
79693;SDS011;69165;52.714;13.200;2023-04-16T15:23:05;14.33;;;8.57;;
79693;SDS011;69165;52.714;13.200;2023-04-16T15:25:07;15.10;;;6.43;;
79693;SDS011;69165;52.714;13.200;2023-04-16T15:27:09;9.63;;;7.27;;
79693;SDS011;69165;52.714;13.200;2023-04-16T15:29:12;11.50;;;7.20;;
79693;SDS011;69165;52.714;13.200;2023-04-16T15:31:14;8.73;;;6.57;;
79693;SDS011;69165;52.714;13.200;2023-04-16T15:33:16;7.73;;;6.50;;
79693;SDS011;69165;52.714;13.200;2023-04-16T15:35:17;12.30;;;7.77;;
79693;SDS011;69165;52.714;13.200;2023-04-16T15:37:19;8.57;;;6.97;;
79693;SDS011;69165;52.714;13.200;2023-04-16T15:39:20;8.57;;;6.80;;
79693;SDS011;69165;52.714;13.200;2023-04-16T15:41:22;13.20;;;7.57;;
79693;SDS011;69165;52.714;13.200;2023-04-16T15:43:25;9.63;;;7.03;;
79693;SDS011;69165;52.714;13.200;2023-04-16T15:45:27;11.57;;;6.80;;
79693;SDS011;69165;52.714;13.200;2023-04-16T15:47:28;10.20;;;6.63;;
79693;SDS011;69165;52.714;13.200;2023-04-16T15:49:30;8.50;;;5.90;;
79693;SDS011;69165;52.714;13.200;2023-04-16T15:51:32;11.60;;;8.30;;
79693;SDS011;69165;52.714;13.200;2023-04-16T15:53:33;8.83;;;7.00;;
79693;SDS011;69165;52.714;13.200;2023-04-16T15:55:35;7.50;;;6.03;;
79693;SDS011;69165;52.714;13.200;2023-04-16T15:57:36;8.63;;;5.83;;
79693;SDS011;69165;52.714;13.200;2023-04-16T15:59:38;6.53;;;5.77;;
79693;SDS011;69165;52.714;13.200;2023-04-16T16:01:40;7.70;;;5.30;;
79693;SDS011;69165;52.714;13.200;2023-04-16T16:03:43;5.83;;;5.20;;
79693;SDS011;69165;52.714;13.200;2023-04-16T16:05:45;8.30;;;6.30;;
79693;SDS011;69165;52.714;13.200;2023-04-16T16:07:47;9.37;;;6.00;;
79693;SDS011;69165;52.714;13.200;2023-04-16T16:09:48;5.47;;;4.97;;
79693;SDS011;69165;52.714;13.200;2023-04-16T16:11:51;10.60;;;5.90;;
79693;SDS011;69165;52.714;13.200;2023-04-16T16:13:52;7.43;;;5.60;;
79693;SDS011;69165;52.714;13.200;2023-04-16T16:15:54;6.97;;;5.60;;
79693;SDS011;69165;52.714;13.200;2023-04-16T16:17:55;8.23;;;5.87;;
79693;SDS011;69165;52.714;13.200;2023-04-16T16:19:57;8.00;;;6.50;;
79693;SDS011;69165;52.714;13.200;2023-04-16T16:21:59;20.03;;;12.90;;
79693;SDS011;69165;52.714;13.200;2023-04-16T16:24:00;22.70;;;13.80;;
79693;SDS011;69165;52.714;13.200;2023-04-16T16:26:02;26.40;;;15.00;;
79693;SDS011;69165;52.714;13.200;2023-04-16T16:28:04;22.53;;;12.90;;
79693;SDS011;69165;52.714;13.200;2023-04-16T16:30:06;32.10;;;15.40;;
79693;SDS011;69165;52.714;13.200;2023-04-16T16:32:09;23.33;;;14.10;;
79693;SDS011;69165;52.714;13.200;2023-04-16T16:34:10;57.47;;;22.00;;
79693;SDS011;69165;52.714;13.200;2023-04-16T16:36:12;22.77;;;13.57;;
79693;SDS011;69165;52.714;13.200;2023-04-16T16:38:15;33.53;;;19.60;;
79693;SDS011;69165;52.714;13.200;2023-04-16T16:40:17;50.17;;;29.47;;
79693;SDS011;69165;52.714;13.200;2023-04-16T16:42:19;18.77;;;11.33;;
79693;SDS011;69165;52.714;13.200;2023-04-16T16:44:21;15.00;;;10.00;;
79693;SDS011;69165;52.714;13.200;2023-04-16T16:46:23;18.87;;;11.20;;
79693;SDS011;69165;52.714;13.200;2023-04-16T16:48:24;21.97;;;12.17;;
79693;SDS011;69165;52.714;13.200;2023-04-16T16:50:26;24.57;;;11.50;;